sensor_id;sensor_type;location;lat;lon;timestamp;temperature;humidity
18317;DHT22;9284;52.298;21.164;2022-12-29T00:01:53;5.70;99.90
18317;DHT22;9284;52.298;21.164;2022-12-29T00:04:23;5.70;99.90
18317;DHT22;9284;52.298;21.164;2022-12-29T00:06:52;5.70;99.90
18317;DHT22;9284;52.298;21.164;2022-12-29T00:09:20;5.80;7.50
18317;DHT22;9284;52.298;21.164;2022-12-29T00:11:49;5.80;22.40
18317;DHT22;9284;52.298;21.164;2022-12-29T00:14:18;5.70;99.90
18317;DHT22;9284;52.298;21.164;2022-12-29T00:17:04;5.70;99.90
18317;DHT22;9284;52.298;21.164;2022-12-29T00:19:33;5.70;99.90
18317;DHT22;9284;52.298;21.164;2022-12-29T00:22:19;5.80;1.00
18317;DHT22;9284;52.298;21.164;2022-12-29T00:25:07;5.80;1.00
18317;DHT22;9284;52.298;21.164;2022-12-29T00:27:53;5.70;1.00
18317;DHT22;9284;52.298;21.164;2022-12-29T00:30:40;5.70;99.90
18317;DHT22;9284;52.298;21.164;2022-12-29T00:33:28;5.70;99.90
18317;DHT22;9284;52.298;21.164;2022-12-29T00:36:18;5.70;96.00
18317;DHT22;9284;52.298;21.164;2022-12-29T00:38:51;5.70;1.00
18317;DHT22;9284;52.298;21.164;2022-12-29T00:41:38;5.70;1.00
18317;DHT22;9284;52.298;21.164;2022-12-29T00:44:24;5.70;1.00
18317;DHT22;9284;52.298;21.164;2022-12-29T00:46:52;5.70;1.00
18317;DHT22;9284;52.298;21.164;2022-12-29T00:49:20;5.70;1.00
18317;DHT22;9284;52.298;21.164;2022-12-29T00:52:04;5.80;1.00
18317;DHT22;9284;52.298;21.164;2022-12-29T00:54:34;5.70;1.00
18317;DHT22;9284;52.298;21.164;2022-12-29T00:57:04;5.80;1.00
18317;DHT22;9284;52.298;21.164;2022-12-29T00:59:35;5.80;1.00
18317;DHT22;9284;52.298;21.164;2022-12-29T01:02:03;5.90;64.30
18317;DHT22;9284;52.298;21.164;2022-12-29T01:04:32;5.80;99.90
18317;DHT22;9284;52.298;21.164;2022-12-29T01:07:01;5.80;1.00
18317;DHT22;9284;52.298;21.164;2022-12-29T01:09:31;5.80;99.90
18317;DHT22;9284;52.298;21.164;2022-12-29T01:12:17;5.80;1.00
18317;DHT22;9284;52.298;21.164;2022-12-29T01:15:10;5.80;1.00
18317;DHT22;9284;52.298;21.164;2022-12-29T01:17:39;5.80;99.90
18317;DHT22;9284;52.298;21.164;2022-12-29T01:20:08;5.80;99.90
18317;DHT22;9284;52.298;21.164;2022-12-29T01:22:38;5.80;99.90
18317;DHT22;9284;52.298;21.164;2022-12-29T01:25:07;5.70;1.00
18317;DHT22;9284;52.298;21.164;2022-12-29T01:27:37;5.70;1.00
18317;DHT22;9284;52.298;21.164;2022-12-29T01:30:07;5.70;1.00
18317;DHT22;9284;52.298;21.164;2022-12-29T01:32:35;5.70;1.00
18317;DHT22;9284;52.298;21.164;2022-12-29T01:35:04;5.70;1.00
18317;DHT22;9284;52.298;21.164;2022-12-29T01:37:34;5.70;99.90
18317;DHT22;9284;52.298;21.164;2022-12-29T01:40:05;5.70;99.90
18317;DHT22;9284;52.298;21.164;2022-12-29T01:42:33;5.70;99.90
18317;DHT22;9284;52.298;21.164;2022-12-29T01:45:02;5.70;99.90
18317;DHT22;9284;52.298;21.164;2022-12-29T01:47:34;5.70;1.00
18317;DHT22;9284;52.298;21.164;2022-12-29T01:50:08;5.70;1.00
18317;DHT22;9284;52.298;21.164;2022-12-29T01:52:43;5.70;99.90
18317;DHT22;9284;52.298;21.164;2022-12-29T01:55:16;5.70;99.90
18317;DHT22;9284;52.298;21.164;2022-12-29T01:57:49;5.80;99.90
18317;DHT22;9284;52.298;21.164;2022-12-29T02:00:19;5.70;69.40
18317;DHT22;9284;52.298;21.164;2022-12-29T02:02:51;5.70;99.90
18317;DHT22;9284;52.298;21.164;2022-12-29T02:05:25;5.70;99.90
18317;DHT22;9284;52.298;21.164;2022-12-29T02:07:55;5.70;17.60
18317;DHT22;9284;52.298;21.164;2022-12-29T02:10:26;5.70;1.00
18317;DHT22;9284;52.298;21.164;2022-12-29T02:12:56;5.70;99.90
18317;DHT22;9284;52.298;21.164;2022-12-29T02:15:31;5.70;1.00
18317;DHT22;9284;52.298;21.164;2022-12-29T02:18:12;5.70;1.00
18317;DHT22;9284;52.298;21.164;2022-12-29T02:21:20;5.70;1.00
18317;DHT22;9284;52.298;21.164;2022-12-29T02:27:25;5.60;99.90
18317;DHT22;9284;52.298;21.164;2022-12-29T02:30:12;5.60;1.00
18317;DHT22;9284;52.298;21.164;2022-12-29T02:32:51;5.50;99.90
18317;DHT22;9284;52.298;21.164;2022-12-29T02:35:28;5.40;99.90
18317;DHT22;9284;52.298;21.164;2022-12-29T02:38:05;5.40;1.00
18317;DHT22;9284;52.298;21.164;2022-12-29T02:40:40;5.30;1.00
18317;DHT22;9284;52.298;21.164;2022-12-29T02:43:19;5.20;99.90
18317;DHT22;9284;52.298;21.164;2022-12-29T02:45:54;5.10;1.00
18317;DHT22;9284;52.298;21.164;2022-12-29T02:48:28;5.00;1.00
18317;DHT22;9284;52.298;21.164;2022-12-29T02:51:01;5.00;1.00
18317;DHT22;9284;52.298;21.164;2022-12-29T02:53:32;4.90;1.00
18317;DHT22;9284;52.298;21.164;2022-12-29T02:56:22;4.80;1.00
18317;DHT22;9284;52.298;21.164;2022-12-29T02:58:51;4.80;99.90
18317;DHT22;9284;52.298;21.164;2022-12-29T03:01:27;4.60;99.90
18317;DHT22;9284;52.298;21.164;2022-12-29T03:04:11;4.60;99.90
18317;DHT22;9284;52.298;21.164;2022-12-29T03:06:50;4.50;1.00
18317;DHT22;9284;52.298;21.164;2022-12-29T03:09:29;4.60;1.00
18317;DHT22;9284;52.298;21.164;2022-12-29T03:12:03;4.40;1.00
18317;DHT22;9284;52.298;21.164;2022-12-29T03:14:47;4.40;1.00
18317;DHT22;9284;52.298;21.164;2022-12-29T03:17:46;4.30;1.00
18317;DHT22;9284;52.298;21.164;2022-12-29T03:20:21;4.20;1.00
18317;DHT22;9284;52.298;21.164;2022-12-29T03:22:57;4.20;67.90
18317;DHT22;9284;52.298;21.164;2022-12-29T03:25:33;4.20;99.90
18317;DHT22;9284;52.298;21.164;2022-12-29T03:28:09;4.20;99.90
18317;DHT22;9284;52.298;21.164;2022-12-29T03:30:43;4.10;99.90
18317;DHT22;9284;52.298;21.164;2022-12-29T03:33:16;4.10;99.90
18317;DHT22;9284;52.298;21.164;2022-12-29T03:35:50;4.00;99.90
18317;DHT22;9284;52.298;21.164;2022-12-29T03:38:23;4.00;99.90
18317;DHT22;9284;52.298;21.164;2022-12-29T03:40:56;4.00;99.90
18317;DHT22;9284;52.298;21.164;2022-12-29T03:43:29;3.90;99.90
18317;DHT22;9284;52.298;21.164;2022-12-29T03:45:57;3.90;99.90
18317;DHT22;9284;52.298;21.164;2022-12-29T03:48:26;3.90;99.90
18317;DHT22;9284;52.298;21.164;2022-12-29T03:50:56;3.90;99.90
18317;DHT22;9284;52.298;21.164;2022-12-29T03:53:25;3.80;99.90
18317;DHT22;9284;52.298;21.164;2022-12-29T03:55:53;3.80;99.90
18317;DHT22;9284;52.298;21.164;2022-12-29T03:58:22;3.80;99.90
18317;DHT22;9284;52.298;21.164;2022-12-29T04:01:00;3.80;99.90
18317;DHT22;9284;52.298;21.164;2022-12-29T04:03:31;3.70;99.90
18317;DHT22;9284;52.298;21.164;2022-12-29T04:06:02;3.70;99.90
18317;DHT22;9284;52.298;21.164;2022-12-29T04:08:47;3.70;99.90
18317;DHT22;9284;52.298;21.164;2022-12-29T04:11:15;3.70;99.90
18317;DHT22;9284;52.298;21.164;2022-12-29T04:13:44;3.60;99.90
18317;DHT22;9284;52.298;21.164;2022-12-29T04:16:17;3.60;99.90
18317;DHT22;9284;52.298;21.164;2022-12-29T04:18:46;3.70;99.90
18317;DHT22;9284;52.298;21.164;2022-12-29T04:21:16;3.60;99.90
18317;DHT22;9284;52.298;21.164;2022-12-29T04:23:44;3.60;99.90
18317;DHT22;9284;52.298;21.164;2022-12-29T04:26:14;3.50;99.90
18317;DHT22;9284;52.298;21.164;2022-12-29T04:28:53;3.50;99.90
18317;DHT22;9284;52.298;21.164;2022-12-29T04:31:41;3.50;99.90
18317;DHT22;9284;52.298;21.164;2022-12-29T04:34:10;3.50;99.90
18317;DHT22;9284;52.298;21.164;2022-12-29T04:36:40;3.40;99.90
18317;DHT22;9284;52.298;21.164;2022-12-29T04:39:08;3.40;99.90
18317;DHT22;9284;52.298;21.164;2022-12-29T04:41:42;3.40;99.90
18317;DHT22;9284;52.298;21.164;2022-12-29T04:44:16;3.30;99.90
18317;DHT22;9284;52.298;21.164;2022-12-29T04:46:47;3.40;99.90
18317;DHT22;9284;52.298;21.164;2022-12-29T04:49:38;3.30;99.90
18317;DHT22;9284;52.298;21.164;2022-12-29T04:52:23;3.30;99.90
18317;DHT22;9284;52.298;21.164;2022-12-29T04:54:51;3.20;99.90
18317;DHT22;9284;52.298;21.164;2022-12-29T04:57:21;3.20;99.90
18317;DHT22;9284;52.298;21.164;2022-12-29T04:59:53;3.20;99.90
18317;DHT22;9284;52.298;21.164;2022-12-29T05:02:22;3.30;99.90
18317;DHT22;9284;52.298;21.164;2022-12-29T05:04:51;3.20;99.90
18317;DHT22;9284;52.298;21.164;2022-12-29T05:07:19;3.20;99.90
18317;DHT22;9284;52.298;21.164;2022-12-29T05:09:49;3.20;99.90
18317;DHT22;9284;52.298;21.164;2022-12-29T05:12:18;3.10;99.90
18317;DHT22;9284;52.298;21.164;2022-12-29T05:14:58;3.00;99.90
18317;DHT22;9284;52.298;21.164;2022-12-29T05:17:27;3.10;99.90
18317;DHT22;9284;52.298;21.164;2022-12-29T05:19:56;3.10;99.90
18317;DHT22;9284;52.298;21.164;2022-12-29T05:22:25;3.10;99.90
18317;DHT22;9284;52.298;21.164;2022-12-29T05:24:56;3.10;99.90
18317;DHT22;9284;52.298;21.164;2022-12-29T05:27:26;3.10;99.90
18317;DHT22;9284;52.298;21.164;2022-12-29T05:30:10;3.10;99.90
18317;DHT22;9284;52.298;21.164;2022-12-29T05:32:38;3.10;99.90
18317;DHT22;9284;52.298;21.164;2022-12-29T05:35:08;3.10;99.90
18317;DHT22;9284;52.298;21.164;2022-12-29T05:37:37;3.10;99.90
18317;DHT22;9284;52.298;21.164;2022-12-29T05:40:08;3.10;99.90
18317;DHT22;9284;52.298;21.164;2022-12-29T05:42:36;3.10;99.90
18317;DHT22;9284;52.298;21.164;2022-12-29T05:45:31;3.10;99.90
18317;DHT22;9284;52.298;21.164;2022-12-29T05:48:35;3.10;99.90
18317;DHT22;9284;52.298;21.164;2022-12-29T05:51:22;3.00;99.90
18317;DHT22;9284;52.298;21.164;2022-12-29T05:53:53;3.00;99.90
18317;DHT22;9284;52.298;21.164;2022-12-29T05:56:23;2.90;99.90
18317;DHT22;9284;52.298;21.164;2022-12-29T05:58:56;3.00;99.90
18317;DHT22;9284;52.298;21.164;2022-12-29T06:01:24;3.00;99.90
18317;DHT22;9284;52.298;21.164;2022-12-29T06:03:53;3.00;99.90
18317;DHT22;9284;52.298;21.164;2022-12-29T06:06:22;3.00;99.90
18317;DHT22;9284;52.298;21.164;2022-12-29T06:08:50;3.00;99.90
18317;DHT22;9284;52.298;21.164;2022-12-29T06:11:19;2.90;99.90
18317;DHT22;9284;52.298;21.164;2022-12-29T06:13:53;2.90;99.90
18317;DHT22;9284;52.298;21.164;2022-12-29T06:16:22;2.90;99.90
18317;DHT22;9284;52.298;21.164;2022-12-29T06:18:54;2.90;99.90
18317;DHT22;9284;52.298;21.164;2022-12-29T06:21:23;2.80;99.90
18317;DHT22;9284;52.298;21.164;2022-12-29T06:23:51;2.90;99.90
18317;DHT22;9284;52.298;21.164;2022-12-29T06:26:20;2.90;99.90
18317;DHT22;9284;52.298;21.164;2022-12-29T06:28:48;3.00;99.90
18317;DHT22;9284;52.298;21.164;2022-12-29T06:31:18;2.90;99.90
18317;DHT22;9284;52.298;21.164;2022-12-29T06:33:48;3.00;99.90
18317;DHT22;9284;52.298;21.164;2022-12-29T06:36:16;3.00;99.90
18317;DHT22;9284;52.298;21.164;2022-12-29T06:38:45;3.10;99.90
18317;DHT22;9284;52.298;21.164;2022-12-29T06:41:13;3.10;99.90
18317;DHT22;9284;52.298;21.164;2022-12-29T06:44:03;3.10;99.90
18317;DHT22;9284;52.298;21.164;2022-12-29T06:46:55;3.10;99.90
18317;DHT22;9284;52.298;21.164;2022-12-29T06:49:24;3.10;99.90
18317;DHT22;9284;52.298;21.164;2022-12-29T06:51:52;3.20;99.90
18317;DHT22;9284;52.298;21.164;2022-12-29T06:54:20;3.20;99.90
18317;DHT22;9284;52.298;21.164;2022-12-29T06:56:49;3.20;99.90
18317;DHT22;9284;52.298;21.164;2022-12-29T06:59:17;3.30;99.90
18317;DHT22;9284;52.298;21.164;2022-12-29T07:01:45;3.20;99.90
18317;DHT22;9284;52.298;21.164;2022-12-29T07:04:15;3.20;99.90
18317;DHT22;9284;52.298;21.164;2022-12-29T07:06:43;3.20;99.90
18317;DHT22;9284;52.298;21.164;2022-12-29T07:09:12;3.20;99.90
18317;DHT22;9284;52.298;21.164;2022-12-29T07:11:40;3.20;99.90
18317;DHT22;9284;52.298;21.164;2022-12-29T07:14:10;3.30;99.90
18317;DHT22;9284;52.298;21.164;2022-12-29T07:16:38;3.40;99.90
18317;DHT22;9284;52.298;21.164;2022-12-29T07:19:06;3.40;99.90
18317;DHT22;9284;52.298;21.164;2022-12-29T07:21:36;3.30;99.90
18317;DHT22;9284;52.298;21.164;2022-12-29T07:24:05;3.30;99.90
18317;DHT22;9284;52.298;21.164;2022-12-29T07:26:33;3.40;99.90
18317;DHT22;9284;52.298;21.164;2022-12-29T07:29:03;3.40;99.90
18317;DHT22;9284;52.298;21.164;2022-12-29T07:31:31;3.40;55.30
18317;DHT22;9284;52.298;21.164;2022-12-29T07:34:00;3.40;96.00
18317;DHT22;9284;52.298;21.164;2022-12-29T07:36:28;3.40;78.90
18317;DHT22;9284;52.298;21.164;2022-12-29T07:39:02;3.60;99.90
18317;DHT22;9284;52.298;21.164;2022-12-29T07:41:31;3.60;1.00
18317;DHT22;9284;52.298;21.164;2022-12-29T07:44:01;3.50;44.60
18317;DHT22;9284;52.298;21.164;2022-12-29T07:46:49;3.60;70.80
18317;DHT22;9284;52.298;21.164;2022-12-29T07:49:23;3.50;76.80
18317;DHT22;9284;52.298;21.164;2022-12-29T07:51:52;3.60;1.00
18317;DHT22;9284;52.298;21.164;2022-12-29T07:54:22;3.70;12.70
18317;DHT22;9284;52.298;21.164;2022-12-29T07:56:50;3.70;26.50
18317;DHT22;9284;52.298;21.164;2022-12-29T07:59:19;3.70;4.50
18317;DHT22;9284;52.298;21.164;2022-12-29T08:01:47;3.70;1.00
18317;DHT22;9284;52.298;21.164;2022-12-29T08:04:16;3.80;1.00
18317;DHT22;9284;52.298;21.164;2022-12-29T08:06:44;3.70;1.00
18317;DHT22;9284;52.298;21.164;2022-12-29T08:09:13;3.80;1.00
18317;DHT22;9284;52.298;21.164;2022-12-29T08:11:49;3.90;1.00
18317;DHT22;9284;52.298;21.164;2022-12-29T08:14:19;3.90;1.00
18317;DHT22;9284;52.298;21.164;2022-12-29T08:16:47;3.90;1.00
18317;DHT22;9284;52.298;21.164;2022-12-29T08:19:15;3.90;1.00
18317;DHT22;9284;52.298;21.164;2022-12-29T08:21:43;3.90;1.00
18317;DHT22;9284;52.298;21.164;2022-12-29T08:24:12;4.00;1.00
18317;DHT22;9284;52.298;21.164;2022-12-29T08:26:40;4.00;1.00
18317;DHT22;9284;52.298;21.164;2022-12-29T08:29:10;4.10;1.00
18317;DHT22;9284;52.298;21.164;2022-12-29T08:31:38;4.20;99.90
18317;DHT22;9284;52.298;21.164;2022-12-29T08:34:06;4.30;99.90
18317;DHT22;9284;52.298;21.164;2022-12-29T08:36:34;4.40;99.90
18317;DHT22;9284;52.298;21.164;2022-12-29T08:39:03;4.50;1.00
18317;DHT22;9284;52.298;21.164;2022-12-29T08:41:31;4.60;99.90
18317;DHT22;9284;52.298;21.164;2022-12-29T08:44:00;4.70;99.90
18317;DHT22;9284;52.298;21.164;2022-12-29T08:46:30;4.70;99.90
18317;DHT22;9284;52.298;21.164;2022-12-29T08:48:58;4.80;99.90
18317;DHT22;9284;52.298;21.164;2022-12-29T08:51:26;4.90;99.90
18317;DHT22;9284;52.298;21.164;2022-12-29T08:53:54;5.10;99.90
18317;DHT22;9284;52.298;21.164;2022-12-29T08:56:23;5.20;99.90
18317;DHT22;9284;52.298;21.164;2022-12-29T08:58:55;5.40;1.00
18317;DHT22;9284;52.298;21.164;2022-12-29T09:01:24;5.50;1.00
18317;DHT22;9284;52.298;21.164;2022-12-29T09:03:54;5.60;99.90
18317;DHT22;9284;52.298;21.164;2022-12-29T09:06:43;5.70;1.00
18317;DHT22;9284;52.298;21.164;2022-12-29T09:09:12;5.80;1.00
18317;DHT22;9284;52.298;21.164;2022-12-29T09:11:41;5.90;99.90
18317;DHT22;9284;52.298;21.164;2022-12-29T09:14:10;6.00;99.90
18317;DHT22;9284;52.298;21.164;2022-12-29T09:16:39;6.00;1.00
18317;DHT22;9284;52.298;21.164;2022-12-29T09:19:26;6.10;1.00
18317;DHT22;9284;52.298;21.164;2022-12-29T09:21:55;6.10;99.90
18317;DHT22;9284;52.298;21.164;2022-12-29T09:24:23;6.20;99.90
18317;DHT22;9284;52.298;21.164;2022-12-29T09:26:52;6.20;1.00
18317;DHT22;9284;52.298;21.164;2022-12-29T09:29:20;6.20;99.90
18317;DHT22;9284;52.298;21.164;2022-12-29T09:31:48;6.30;1.00
18317;DHT22;9284;52.298;21.164;2022-12-29T09:34:17;6.30;1.00
18317;DHT22;9284;52.298;21.164;2022-12-29T09:36:46;6.40;1.00
18317;DHT22;9284;52.298;21.164;2022-12-29T09:39:15;6.40;99.90
18317;DHT22;9284;52.298;21.164;2022-12-29T09:41:47;6.60;57.00
18317;DHT22;9284;52.298;21.164;2022-12-29T09:44:22;6.60;99.90
18317;DHT22;9284;52.298;21.164;2022-12-29T09:46:54;6.70;1.00
18317;DHT22;9284;52.298;21.164;2022-12-29T09:49:26;6.70;99.90
18317;DHT22;9284;52.298;21.164;2022-12-29T09:52:03;6.70;1.00
18317;DHT22;9284;52.298;21.164;2022-12-29T09:54:42;6.80;1.00
18317;DHT22;9284;52.298;21.164;2022-12-29T09:57:25;6.80;1.00
18317;DHT22;9284;52.298;21.164;2022-12-29T09:59:57;6.80;1.00
18317;DHT22;9284;52.298;21.164;2022-12-29T10:02:37;6.80;1.00
18317;DHT22;9284;52.298;21.164;2022-12-29T10:05:18;6.80;99.90
18317;DHT22;9284;52.298;21.164;2022-12-29T10:07:54;6.90;99.90
18317;DHT22;9284;52.298;21.164;2022-12-29T10:10:34;6.90;99.90
18317;DHT22;9284;52.298;21.164;2022-12-29T10:13:20;7.00;99.90
18317;DHT22;9284;52.298;21.164;2022-12-29T10:16:01;7.00;99.90
18317;DHT22;9284;52.298;21.164;2022-12-29T10:18:51;6.90;99.90
18317;DHT22;9284;52.298;21.164;2022-12-29T10:21:28;7.10;99.90
18317;DHT22;9284;52.298;21.164;2022-12-29T10:24:04;7.00;99.90
18317;DHT22;9284;52.298;21.164;2022-12-29T10:26:41;7.10;99.90
18317;DHT22;9284;52.298;21.164;2022-12-29T10:29:17;7.10;99.90
18317;DHT22;9284;52.298;21.164;2022-12-29T10:31:54;7.10;99.90
18317;DHT22;9284;52.298;21.164;2022-12-29T10:34:27;7.10;99.90
18317;DHT22;9284;52.298;21.164;2022-12-29T10:37:04;7.20;99.90
18317;DHT22;9284;52.298;21.164;2022-12-29T10:39:44;7.20;99.90
18317;DHT22;9284;52.298;21.164;2022-12-29T10:42:20;7.20;99.90
18317;DHT22;9284;52.298;21.164;2022-12-29T10:44:56;7.10;99.90
18317;DHT22;9284;52.298;21.164;2022-12-29T10:47:28;7.20;99.90
18317;DHT22;9284;52.298;21.164;2022-12-29T10:50:11;7.20;99.90
18317;DHT22;9284;52.298;21.164;2022-12-29T10:52:40;7.30;99.90
18317;DHT22;9284;52.298;21.164;2022-12-29T10:55:17;7.30;99.90
18317;DHT22;9284;52.298;21.164;2022-12-29T10:57:47;7.30;99.90
18317;DHT22;9284;52.298;21.164;2022-12-29T11:00:18;7.30;99.90
18317;DHT22;9284;52.298;21.164;2022-12-29T11:03:11;7.40;99.90
18317;DHT22;9284;52.298;21.164;2022-12-29T11:05:51;7.40;99.90
18317;DHT22;9284;52.298;21.164;2022-12-29T11:08:23;7.50;99.90
18317;DHT22;9284;52.298;21.164;2022-12-29T11:11:00;7.40;99.90
18317;DHT22;9284;52.298;21.164;2022-12-29T11:13:30;7.40;99.90
18317;DHT22;9284;52.298;21.164;2022-12-29T11:16:05;7.50;99.90
18317;DHT22;9284;52.298;21.164;2022-12-29T11:18:35;7.50;99.90
18317;DHT22;9284;52.298;21.164;2022-12-29T11:21:30;7.50;99.90
18317;DHT22;9284;52.298;21.164;2022-12-29T11:24:03;7.40;99.90
18317;DHT22;9284;52.298;21.164;2022-12-29T11:26:33;7.50;99.90
18317;DHT22;9284;52.298;21.164;2022-12-29T11:29:20;7.40;99.90
18317;DHT22;9284;52.298;21.164;2022-12-29T11:31:51;7.50;99.90
18317;DHT22;9284;52.298;21.164;2022-12-29T11:34:23;7.60;99.90
18317;DHT22;9284;52.298;21.164;2022-12-29T11:36:58;7.60;99.90
18317;DHT22;9284;52.298;21.164;2022-12-29T11:39:39;7.60;99.90
18317;DHT22;9284;52.298;21.164;2022-12-29T11:42:16;7.70;99.90
18317;DHT22;9284;52.298;21.164;2022-12-29T11:44:47;7.70;99.90
18317;DHT22;9284;52.298;21.164;2022-12-29T11:47:26;7.70;99.90
18317;DHT22;9284;52.298;21.164;2022-12-29T11:50:00;7.70;99.90
18317;DHT22;9284;52.298;21.164;2022-12-29T11:52:33;7.70;99.90
18317;DHT22;9284;52.298;21.164;2022-12-29T11:55:06;7.70;99.90
18317;DHT22;9284;52.298;21.164;2022-12-29T11:57:46;7.70;99.90
18317;DHT22;9284;52.298;21.164;2022-12-29T12:00:20;7.80;99.90
18317;DHT22;9284;52.298;21.164;2022-12-29T12:02:57;7.80;99.90
18317;DHT22;9284;52.298;21.164;2022-12-29T12:05:36;7.90;99.90
18317;DHT22;9284;52.298;21.164;2022-12-29T12:08:11;7.90;99.90
18317;DHT22;9284;52.298;21.164;2022-12-29T12:10:54;7.90;99.90
18317;DHT22;9284;52.298;21.164;2022-12-29T12:13:30;7.90;99.90
18317;DHT22;9284;52.298;21.164;2022-12-29T12:16:07;8.00;99.90
18317;DHT22;9284;52.298;21.164;2022-12-29T12:18:41;8.00;99.90
18317;DHT22;9284;52.298;21.164;2022-12-29T12:21:21;8.00;99.90
18317;DHT22;9284;52.298;21.164;2022-12-29T12:24:10;8.00;99.90
18317;DHT22;9284;52.298;21.164;2022-12-29T12:26:55;8.00;99.90
18317;DHT22;9284;52.298;21.164;2022-12-29T12:29:32;8.00;99.90
18317;DHT22;9284;52.298;21.164;2022-12-29T12:32:12;8.00;99.90
18317;DHT22;9284;52.298;21.164;2022-12-29T12:34:49;8.00;99.90
18317;DHT22;9284;52.298;21.164;2022-12-29T12:37:37;8.00;99.90
18317;DHT22;9284;52.298;21.164;2022-12-29T12:40:34;8.00;99.90
18317;DHT22;9284;52.298;21.164;2022-12-29T12:43:19;8.00;99.90
18317;DHT22;9284;52.298;21.164;2022-12-29T12:46:00;8.00;99.90
18317;DHT22;9284;52.298;21.164;2022-12-29T12:48:46;8.10;99.90
18317;DHT22;9284;52.298;21.164;2022-12-29T12:51:27;8.10;99.90
18317;DHT22;9284;52.298;21.164;2022-12-29T12:54:11;8.10;99.90
18317;DHT22;9284;52.298;21.164;2022-12-29T12:56:59;8.10;99.90
18317;DHT22;9284;52.298;21.164;2022-12-29T12:59:41;8.20;99.90
18317;DHT22;9284;52.298;21.164;2022-12-29T13:02:25;8.30;99.90
18317;DHT22;9284;52.298;21.164;2022-12-29T13:08:02;8.30;99.90
18317;DHT22;9284;52.298;21.164;2022-12-29T13:10:41;8.30;99.90
18317;DHT22;9284;52.298;21.164;2022-12-29T13:16:39;8.30;99.90
18317;DHT22;9284;52.298;21.164;2022-12-29T13:19:15;8.30;99.90
18317;DHT22;9284;52.298;21.164;2022-12-29T13:21:57;8.20;99.90
18317;DHT22;9284;52.298;21.164;2022-12-29T13:24:40;8.30;99.90
18317;DHT22;9284;52.298;21.164;2022-12-29T13:27:16;8.30;99.90
18317;DHT22;9284;52.298;21.164;2022-12-29T13:29:57;8.30;99.90
18317;DHT22;9284;52.298;21.164;2022-12-29T13:32:53;8.20;99.90
18317;DHT22;9284;52.298;21.164;2022-12-29T13:35:39;8.30;99.90
18317;DHT22;9284;52.298;21.164;2022-12-29T13:38:19;8.20;99.90
18317;DHT22;9284;52.298;21.164;2022-12-29T13:40:55;8.20;99.90
18317;DHT22;9284;52.298;21.164;2022-12-29T13:43:27;8.20;99.90
18317;DHT22;9284;52.298;21.164;2022-12-29T13:46:01;8.10;99.90
18317;DHT22;9284;52.298;21.164;2022-12-29T13:48:37;8.10;99.90
18317;DHT22;9284;52.298;21.164;2022-12-29T13:51:11;8.10;99.90
18317;DHT22;9284;52.298;21.164;2022-12-29T13:53:54;8.00;99.90
18317;DHT22;9284;52.298;21.164;2022-12-29T13:56:33;8.00;99.90
18317;DHT22;9284;52.298;21.164;2022-12-29T13:59:11;8.20;99.90
18317;DHT22;9284;52.298;21.164;2022-12-29T14:01:43;8.10;99.90
18317;DHT22;9284;52.298;21.164;2022-12-29T14:04:23;8.10;99.90
18317;DHT22;9284;52.298;21.164;2022-12-29T14:07:12;8.10;99.90
18317;DHT22;9284;52.298;21.164;2022-12-29T14:09:45;8.10;99.90
18317;DHT22;9284;52.298;21.164;2022-12-29T14:12:29;8.10;99.90
18317;DHT22;9284;52.298;21.164;2022-12-29T14:15:21;8.10;99.90
18317;DHT22;9284;52.298;21.164;2022-12-29T14:18:09;8.20;99.90
18317;DHT22;9284;52.298;21.164;2022-12-29T14:20:39;8.20;99.90
18317;DHT22;9284;52.298;21.164;2022-12-29T14:23:27;8.20;99.90
18317;DHT22;9284;52.298;21.164;2022-12-29T14:26:11;8.30;99.90
18317;DHT22;9284;52.298;21.164;2022-12-29T14:28:42;8.40;99.90
18317;DHT22;9284;52.298;21.164;2022-12-29T14:31:33;8.40;99.90
18317;DHT22;9284;52.298;21.164;2022-12-29T14:34:30;8.40;99.90
18317;DHT22;9284;52.298;21.164;2022-12-29T14:37:23;8.40;99.90
18317;DHT22;9284;52.298;21.164;2022-12-29T14:40:08;8.40;99.90
18317;DHT22;9284;52.298;21.164;2022-12-29T14:42:42;8.40;99.90
18317;DHT22;9284;52.298;21.164;2022-12-29T14:45:27;8.50;99.90
18317;DHT22;9284;52.298;21.164;2022-12-29T14:47:58;8.50;99.90
18317;DHT22;9284;52.298;21.164;2022-12-29T14:50:36;8.40;99.90
18317;DHT22;9284;52.298;21.164;2022-12-29T14:53:42;8.50;99.90
18317;DHT22;9284;52.298;21.164;2022-12-29T14:56:17;8.40;99.90
18317;DHT22;9284;52.298;21.164;2022-12-29T14:58:52;8.40;99.90
18317;DHT22;9284;52.298;21.164;2022-12-29T15:01:34;8.40;99.90
18317;DHT22;9284;52.298;21.164;2022-12-29T15:04:14;8.40;99.90
18317;DHT22;9284;52.298;21.164;2022-12-29T15:06:43;8.40;99.90
18317;DHT22;9284;52.298;21.164;2022-12-29T15:09:23;8.40;99.90
18317;DHT22;9284;52.298;21.164;2022-12-29T15:12:00;8.30;99.90
18317;DHT22;9284;52.298;21.164;2022-12-29T15:14:47;8.30;99.90
18317;DHT22;9284;52.298;21.164;2022-12-29T15:17:24;8.30;99.90
18317;DHT22;9284;52.298;21.164;2022-12-29T15:19:53;8.20;99.90
18317;DHT22;9284;52.298;21.164;2022-12-29T15:22:22;8.20;99.90
18317;DHT22;9284;52.298;21.164;2022-12-29T15:24:54;8.20;99.90
18317;DHT22;9284;52.298;21.164;2022-12-29T15:27:26;7.90;99.90
18317;DHT22;9284;52.298;21.164;2022-12-29T15:29:59;8.10;99.90
18317;DHT22;9284;52.298;21.164;2022-12-29T15:32:39;8.00;99.90
18317;DHT22;9284;52.298;21.164;2022-12-29T15:35:27;8.00;99.90
18317;DHT22;9284;52.298;21.164;2022-12-29T15:38:12;8.10;99.90
18317;DHT22;9284;52.298;21.164;2022-12-29T15:40:48;8.10;99.90
18317;DHT22;9284;52.298;21.164;2022-12-29T15:43:36;8.10;99.90
18317;DHT22;9284;52.298;21.164;2022-12-29T15:46:13;8.10;99.90
18317;DHT22;9284;52.298;21.164;2022-12-29T15:48:42;8.00;99.90
18317;DHT22;9284;52.298;21.164;2022-12-29T15:51:18;8.00;99.90
18317;DHT22;9284;52.298;21.164;2022-12-29T15:53:50;8.00;99.90
18317;DHT22;9284;52.298;21.164;2022-12-29T15:56:20;8.00;99.90
18317;DHT22;9284;52.298;21.164;2022-12-29T15:58:51;8.00;99.90
18317;DHT22;9284;52.298;21.164;2022-12-29T16:01:29;8.00;99.90
18317;DHT22;9284;52.298;21.164;2022-12-29T16:04:00;8.00;99.90
18317;DHT22;9284;52.298;21.164;2022-12-29T16:06:33;7.90;99.90
18317;DHT22;9284;52.298;21.164;2022-12-29T16:09:04;7.80;99.90
18317;DHT22;9284;52.298;21.164;2022-12-29T16:11:35;7.70;99.90
18317;DHT22;9284;52.298;21.164;2022-12-29T16:14:09;7.60;99.90
18317;DHT22;9284;52.298;21.164;2022-12-29T16:16:45;7.60;99.90
18317;DHT22;9284;52.298;21.164;2022-12-29T16:19:21;7.60;99.90
18317;DHT22;9284;52.298;21.164;2022-12-29T16:21:52;7.50;99.90
18317;DHT22;9284;52.298;21.164;2022-12-29T16:24:23;7.50;99.90
18317;DHT22;9284;52.298;21.164;2022-12-29T16:26:56;7.50;99.90
18317;DHT22;9284;52.298;21.164;2022-12-29T16:29:28;7.50;99.90
18317;DHT22;9284;52.298;21.164;2022-12-29T16:32:00;7.60;99.90
18317;DHT22;9284;52.298;21.164;2022-12-29T16:34:33;7.50;99.90
18317;DHT22;9284;52.298;21.164;2022-12-29T16:37:28;7.50;99.90
18317;DHT22;9284;52.298;21.164;2022-12-29T16:40:22;7.50;99.90
18317;DHT22;9284;52.298;21.164;2022-12-29T16:42:56;7.40;99.90
18317;DHT22;9284;52.298;21.164;2022-12-29T16:48:46;7.30;99.90
18317;DHT22;9284;52.298;21.164;2022-12-29T16:51:28;7.30;99.90
18317;DHT22;9284;52.298;21.164;2022-12-29T16:53:57;7.40;99.90